Everhartville, Pennsylvania
Current Conditions -  °F | °C
As of 7:56 AM on Tuesday 21 Oct 2014 (Local Time) from KCXY Reporting Station
Haze Haze  
Wind Chill: 51°   Ceiling: 200
Heat Index: 51°   Visibility: 0.75mi
Dew Point: 51°   Wind: 0mph
Humidity: 100%   Direction: NA
Pressure: 29.87"   Gusts: NA
Location:  40.4932°N, 77.217°W
Report Text: KCXY 211156Z 00000KT 3/4SM R08/5500VP6000FT BR OVC002 11/11 A2987 RMK AO2 SLP115 60000 70014 T01060106 10122 20100 53002
Loading
Personal Weather Stations






























Interactive Weather Map New forecast layout! Learn more

10-Day Weather Forecast

Advertisements
Track Severe Weather on mobile